createdAt,value
2017-12-29T00:01:39.917Z,1.33
2017-12-29T00:04:09.772Z,2.17
2017-12-29T00:06:39.365Z,2.10
2017-12-29T00:09:09.174Z,2.13
2017-12-29T00:11:39.194Z,1.97
2017-12-29T00:14:08.716Z,1.93
2017-12-29T00:16:38.221Z,2.70
2017-12-29T00:19:07.887Z,2.50
2017-12-29T00:21:37.420Z,3.80
2017-12-29T00:24:06.907Z,3.20
2017-12-29T00:26:36.402Z,1.97
2017-12-29T00:29:05.875Z,2.47
2017-12-29T00:31:35.399Z,2.03
2017-12-29T00:34:05.667Z,3.97
2017-12-29T00:36:35.110Z,3.80
2017-12-29T00:39:05.055Z,2.93
2017-12-29T00:41:34.849Z,2.90
2017-12-29T00:44:05.059Z,2.90
2017-12-29T00:46:34.546Z,2.83
2017-12-29T00:49:04.944Z,3.83
2017-12-29T00:51:34.733Z,2.40
2017-12-29T00:54:04.267Z,3.77
2017-12-29T00:56:34.022Z,3.10
2017-12-29T00:59:04.016Z,2.70
2017-12-29T01:01:33.807Z,2.87
2017-12-29T01:04:04.160Z,3.70
2017-12-29T01:06:33.599Z,2.80
2017-12-29T01:09:03.236Z,3.60
2017-12-29T01:11:32.995Z,2.40
2017-12-29T01:14:03.221Z,3.60
2017-12-29T01:16:33.035Z,2.80
2017-12-29T01:19:02.787Z,2.43
2017-12-29T01:21:32.247Z,2.80
2017-12-29T01:24:03.625Z,2.23
2017-12-29T01:26:33.087Z,3.27
2017-12-29T01:29:02.648Z,3.67
2017-12-29T01:31:32.091Z,2.70
2017-12-29T01:34:01.590Z,3.13
2017-12-29T01:36:31.057Z,2.80
2017-12-29T01:39:00.688Z,2.77
2017-12-29T01:41:30.146Z,3.17
2017-12-29T01:43:59.585Z,2.10
2017-12-29T01:46:29.188Z,2.67
2017-12-29T01:48:58.634Z,2.17
2017-12-29T01:51:28.846Z,2.33
2017-12-29T01:53:58.283Z,2.37
2017-12-29T01:56:27.705Z,2.60
2017-12-29T01:58:57.157Z,2.20
2017-12-29T02:01:26.746Z,2.00
2017-12-29T02:03:56.547Z,2.13
2017-12-29T02:06:26.148Z,2.50
2017-12-29T02:09:05.049Z,3.23
2017-12-29T02:11:35.226Z,2.20
2017-12-29T02:14:04.664Z,2.77
2017-12-29T02:16:34.599Z,1.97
2017-12-29T02:19:04.111Z,1.33
2017-12-29T02:21:33.567Z,2.03
2017-12-29T02:24:03.024Z,1.63
2017-12-29T02:26:32.773Z,1.97
2017-12-29T02:29:03.078Z,4.00
2017-12-29T02:31:32.592Z,1.40
2017-12-29T02:34:03.010Z,2.20
2017-12-29T02:36:32.933Z,1.60
2017-12-29T02:39:02.607Z,1.50
2017-12-29T02:41:32.217Z,1.80
2017-12-29T02:44:02.367Z,1.47
2017-12-29T02:46:32.800Z,1.70
2017-12-29T02:49:02.210Z,1.60
2017-12-29T02:51:31.709Z,2.80
2017-12-29T02:54:01.398Z,2.50
2017-12-29T02:56:31.260Z,2.50
2017-12-29T02:59:00.826Z,1.93
2017-12-29T03:01:30.535Z,2.87
2017-12-29T03:03:59.997Z,2.60
2017-12-29T03:06:29.434Z,2.40
2017-12-29T03:08:59.394Z,2.60
2017-12-29T03:11:28.887Z,2.80
2017-12-29T03:13:59.289Z,2.47
2017-12-29T03:16:29.082Z,2.80
2017-12-29T03:18:58.674Z,2.80
2017-12-29T03:21:28.168Z,2.50
2017-12-29T03:23:57.718Z,3.20
2017-12-29T03:26:27.458Z,2.77
2017-12-29T03:28:57.127Z,2.13
2017-12-29T03:31:26.597Z,3.80
2017-12-29T03:33:56.292Z,2.60
2017-12-29T03:36:25.737Z,2.50
2017-12-29T03:38:55.185Z,3.23
2017-12-29T03:41:25.042Z,3.40
2017-12-29T03:43:54.462Z,2.97
2017-12-29T03:46:24.014Z,2.80
2017-12-29T03:48:53.690Z,2.43
2017-12-29T03:51:23.923Z,3.30
2017-12-29T03:53:53.357Z,3.47
2017-12-29T03:56:22.783Z,3.83
2017-12-29T03:58:52.204Z,2.40
2017-12-29T04:01:21.786Z,2.30
2017-12-29T04:03:51.253Z,3.57
2017-12-29T04:06:20.690Z,2.50
2017-12-29T04:08:50.122Z,4.13
2017-12-29T04:11:19.566Z,2.67
2017-12-29T04:13:49.269Z,2.70
2017-12-29T04:16:18.704Z,2.10
2017-12-29T04:18:48.130Z,3.07
2017-12-29T04:21:18.012Z,2.60
2017-12-29T04:23:47.647Z,2.33
2017-12-29T04:26:17.090Z,2.50
2017-12-29T04:28:47.361Z,3.00
2017-12-29T04:31:16.837Z,2.87
2017-12-29T04:33:46.583Z,2.57
2017-12-29T04:36:16.026Z,2.73
2017-12-29T04:38:45.510Z,2.17
2017-12-29T04:41:14.953Z,3.07
2017-12-29T04:43:44.445Z,2.83
2017-12-29T04:46:15.018Z,3.10
2017-12-29T04:48:44.451Z,2.70
2017-12-29T04:51:14.047Z,2.60
2017-12-29T04:53:43.675Z,4.07
2017-12-29T04:56:13.530Z,2.80
2017-12-29T04:58:43.270Z,2.50
2017-12-29T05:01:12.967Z,2.73
2017-12-29T05:03:42.506Z,2.53
2017-12-29T05:06:11.961Z,2.90
2017-12-29T05:08:41.518Z,2.57
2017-12-29T05:11:10.953Z,2.87
2017-12-29T05:13:40.402Z,3.57
2017-12-29T05:16:09.843Z,2.73
2017-12-29T05:18:40.079Z,2.20
2017-12-29T05:21:09.521Z,1.67
2017-12-29T05:23:38.977Z,3.40
2017-12-29T05:26:08.658Z,1.67
2017-12-29T05:28:38.090Z,1.80
2017-12-29T05:31:07.563Z,3.23
2017-12-29T05:33:36.986Z,2.60
2017-12-29T05:36:07.377Z,2.00
2017-12-29T05:38:36.815Z,3.87
2017-12-29T05:41:06.358Z,2.03
2017-12-29T05:43:36.008Z,1.97
2017-12-29T05:46:06.223Z,2.10
2017-12-29T05:48:36.458Z,2.20
2017-12-29T05:51:05.885Z,1.83
2017-12-29T05:53:36.116Z,1.90
2017-12-29T05:56:05.574Z,2.23
2017-12-29T05:58:35.601Z,1.77
2017-12-29T06:01:05.530Z,1.80
2017-12-29T06:03:34.945Z,1.93
2017-12-29T06:06:04.647Z,2.10
2017-12-29T06:08:34.098Z,1.70
2017-12-29T06:11:03.865Z,1.80
2017-12-29T06:13:33.309Z,1.63
2017-12-29T06:16:02.767Z,1.70
2017-12-29T06:18:33.041Z,3.17
2017-12-29T06:21:02.902Z,1.97
2017-12-29T06:23:32.531Z,1.73
2017-12-29T06:26:02.103Z,2.13
2017-12-29T06:28:31.570Z,1.53
2017-12-29T06:31:01.192Z,1.73
2017-12-29T06:33:30.839Z,2.40
2017-12-29T06:36:00.623Z,1.80
2017-12-29T06:38:30.368Z,1.83
2017-12-29T06:41:00.704Z,1.87
2017-12-29T06:43:30.186Z,2.90
2017-12-29T06:46:00.070Z,1.77
2017-12-29T06:48:29.683Z,1.97
2017-12-29T06:50:59.993Z,1.83
2017-12-29T06:53:29.442Z,1.80
2017-12-29T06:55:58.926Z,1.43
2017-12-29T06:58:28.515Z,1.73
2017-12-29T07:00:57.961Z,2.10
2017-12-29T07:03:27.662Z,2.00
2017-12-29T07:05:58.021Z,2.17
2017-12-29T07:08:27.457Z,2.43
2017-12-29T07:10:56.870Z,1.53
2017-12-29T07:13:27.190Z,2.10
2017-12-29T07:15:56.622Z,3.47
2017-12-29T07:18:26.826Z,1.47
2017-12-29T07:20:56.497Z,1.83
2017-12-29T07:23:25.944Z,1.87
2017-12-29T07:25:55.864Z,1.67
2017-12-29T07:28:26.101Z,1.60
2017-12-29T07:30:55.550Z,1.60
2017-12-29T07:33:25.010Z,1.40
2017-12-29T07:35:54.513Z,1.93
2017-12-29T07:38:24.179Z,2.33
2017-12-29T07:40:53.770Z,1.60
2017-12-29T07:43:23.234Z,1.23
2017-12-29T07:45:52.704Z,1.43
2017-12-29T07:48:22.195Z,1.60
2017-12-29T07:50:51.941Z,1.60
2017-12-29T07:53:22.274Z,2.07
2017-12-29T07:55:51.931Z,1.20
2017-12-29T07:58:21.414Z,1.20
2017-12-29T08:00:50.970Z,2.10
2017-12-29T08:03:20.646Z,1.23
2017-12-29T08:05:50.094Z,1.97
2017-12-29T08:08:19.683Z,2.17
2017-12-29T08:10:49.486Z,1.40
2017-12-29T08:13:18.914Z,1.50
2017-12-29T08:15:48.395Z,2.40
2017-12-29T08:18:17.874Z,1.40
2017-12-29T08:20:47.627Z,2.10
2017-12-29T08:23:17.982Z,0.90
2017-12-29T08:25:47.470Z,1.30
2017-12-29T08:28:17.842Z,1.00
2017-12-29T08:30:47.347Z,1.30
2017-12-29T08:33:16.809Z,1.20
2017-12-29T08:35:46.446Z,1.60
2017-12-29T08:38:16.078Z,1.37
2017-12-29T08:40:45.542Z,1.70
2017-12-29T08:43:20.630Z,1.03
2017-12-29T08:45:50.265Z,3.10
2017-12-29T08:48:20.214Z,1.40
2017-12-29T08:50:50.007Z,1.50
2017-12-29T08:53:19.922Z,1.57
2017-12-29T08:55:49.903Z,1.23
2017-12-29T08:58:19.738Z,1.80
2017-12-29T09:00:49.205Z,2.07
2017-12-29T09:03:18.699Z,1.37
2017-12-29T09:05:48.400Z,1.93
2017-12-29T09:08:18.516Z,1.43
2017-12-29T09:10:48.335Z,1.53
2017-12-29T09:13:18.005Z,1.90
2017-12-29T09:15:47.633Z,1.80
2017-12-29T09:18:17.314Z,1.40
2017-12-29T09:20:47.064Z,1.67
2017-12-29T09:23:16.626Z,2.00
2017-12-29T09:25:46.502Z,2.60
2017-12-29T09:28:16.151Z,2.07
2017-12-29T09:30:45.863Z,2.30
2017-12-29T09:33:15.504Z,1.80
2017-12-29T09:35:46.033Z,2.20
2017-12-29T09:38:15.629Z,1.77
2017-12-29T09:40:45.968Z,2.80
2017-12-29T09:43:16.134Z,1.43
2017-12-29T09:45:46.086Z,2.37
2017-12-29T09:48:15.578Z,1.13
2017-12-29T09:50:45.026Z,1.20
2017-12-29T09:53:14.542Z,1.00
2017-12-29T09:55:44.223Z,1.33
2017-12-29T09:58:13.882Z,0.80
2017-12-29T10:00:44.286Z,1.13
2017-12-29T10:03:16.058Z,1.00
2017-12-29T10:05:45.699Z,0.80
2017-12-29T10:08:16.581Z,0.83
2017-12-29T10:10:46.017Z,0.60
2017-12-29T10:13:16.188Z,0.50
2017-12-29T10:15:45.838Z,0.90
2017-12-29T10:18:15.650Z,0.70
2017-12-29T10:20:45.371Z,0.70
2017-12-29T10:23:15.647Z,0.50
2017-12-29T10:25:45.371Z,0.70
2017-12-29T10:28:15.189Z,0.80
2017-12-29T10:30:44.799Z,0.70
2017-12-29T10:33:22.447Z,0.60
2017-12-29T10:36:00.172Z,0.83
2017-12-29T10:38:31.235Z,0.60
2017-12-29T10:41:00.934Z,1.03
2017-12-29T10:43:31.274Z,1.00
2017-12-29T10:46:00.873Z,1.33
2017-12-29T10:48:30.706Z,73.53
2017-12-29T10:51:00.180Z,35.20
2017-12-29T10:53:29.994Z,29.63
2017-12-29T10:55:59.547Z,18.30
2017-12-29T10:58:29.087Z,15.33
2017-12-29T11:00:58.686Z,14.73
2017-12-29T11:03:28.271Z,8.30
2017-12-29T11:05:57.763Z,5.30
2017-12-29T11:08:27.478Z,3.83
2017-12-29T11:10:57.402Z,2.40
2017-12-29T11:13:27.642Z,2.90
2017-12-29T11:15:57.373Z,1.90
2017-12-29T11:18:26.887Z,2.30
2017-12-29T11:20:56.440Z,1.70
2017-12-29T11:23:25.909Z,1.80
2017-12-29T11:25:55.502Z,1.30
2017-12-29T11:28:25.947Z,2.80
2017-12-29T11:30:56.038Z,1.73
2017-12-29T11:33:25.495Z,2.13
2017-12-29T11:35:55.074Z,2.43
2017-12-29T11:38:24.688Z,2.17
2017-12-29T11:40:54.984Z,2.17
2017-12-29T11:43:24.478Z,2.50
2017-12-29T11:45:54.989Z,3.90
2017-12-29T11:48:24.929Z,4.13
2017-12-29T11:50:54.426Z,4.97
2017-12-29T11:53:24.022Z,5.30
2017-12-29T11:55:54.387Z,7.00
2017-12-29T11:58:23.891Z,6.67
2017-12-29T12:00:53.618Z,7.63
2017-12-29T12:03:23.222Z,6.70
2017-12-29T12:05:52.942Z,6.63
2017-12-29T12:08:22.814Z,9.57
2017-12-29T12:10:52.748Z,5.00
2017-12-29T12:13:23.030Z,4.27
2017-12-29T12:15:52.866Z,5.73
2017-12-29T12:18:22.555Z,5.80
2017-12-29T12:20:52.173Z,5.27
2017-12-29T12:23:21.617Z,6.63
2017-12-29T12:25:51.333Z,4.90
2017-12-29T12:28:21.002Z,6.10
2017-12-29T12:30:51.050Z,7.63
2017-12-29T12:33:20.568Z,9.23
2017-12-29T12:35:50.327Z,10.83
2017-12-29T12:38:19.947Z,11.23
2017-12-29T12:40:49.653Z,11.53
2017-12-29T12:43:19.416Z,11.40
2017-12-29T12:45:49.009Z,11.40
2017-12-29T12:48:19.035Z,10.97
2017-12-29T12:50:48.717Z,12.90
2017-12-29T12:53:19.091Z,14.57
2017-12-29T12:55:49.211Z,12.50
2017-12-29T12:58:18.890Z,12.60
2017-12-29T13:00:48.741Z,13.57
2017-12-29T13:03:18.620Z,13.50
2017-12-29T13:05:48.673Z,13.60
2017-12-29T13:08:18.179Z,14.70
2017-12-29T13:10:47.823Z,16.73
2017-12-29T13:13:17.342Z,16.43
2017-12-29T13:15:46.918Z,14.80
2017-12-29T13:18:18.084Z,16.27
2017-12-29T13:20:47.683Z,15.90
2017-12-29T13:23:18.112Z,15.97
2017-12-29T13:25:48.014Z,16.77
2017-12-29T13:28:17.692Z,14.70
2017-12-29T13:30:47.325Z,16.33
2017-12-29T13:33:17.063Z,16.23
2017-12-29T13:35:46.816Z,13.53
2017-12-29T13:38:16.527Z,17.57
2017-12-29T13:40:46.007Z,14.13
2017-12-29T13:43:15.498Z,14.23
2017-12-29T13:45:45.096Z,15.87
2017-12-29T13:48:14.944Z,14.60
2017-12-29T13:50:44.880Z,15.77
2017-12-29T13:53:14.437Z,15.57
2017-12-29T13:55:43.914Z,15.77
2017-12-29T14:01:14.855Z,14.37
2017-12-29T14:03:44.581Z,15.70
2017-12-29T14:06:15.157Z,15.10
2017-12-29T14:08:45.948Z,16.13
2017-12-29T14:11:16.375Z,15.87
2017-12-29T14:13:45.880Z,16.17
2017-12-29T14:16:15.749Z,16.17
2017-12-29T14:18:45.250Z,15.37
2017-12-29T14:21:15.154Z,16.97
2017-12-29T14:23:44.931Z,16.40
2017-12-29T14:26:14.603Z,15.03
2017-12-29T14:28:45.099Z,15.60
2017-12-29T14:31:15.246Z,15.23
2017-12-29T14:33:45.011Z,14.73
2017-12-29T14:36:15.142Z,16.23
2017-12-29T14:38:46.081Z,17.83
2017-12-29T14:41:15.804Z,17.23
2017-12-29T14:43:45.286Z,19.13
2017-12-29T14:46:14.898Z,18.93
2017-12-29T14:48:44.867Z,16.47
2017-12-29T14:51:14.455Z,18.20
2017-12-29T14:53:44.164Z,19.90
2017-12-29T14:56:13.903Z,17.33
2017-12-29T14:58:43.787Z,17.63
2017-12-29T15:01:13.414Z,16.83
2017-12-29T15:03:43.062Z,16.00
2017-12-29T15:06:12.647Z,17.13
2017-12-29T15:08:42.472Z,17.27
2017-12-29T15:11:11.998Z,15.63
2017-12-29T15:13:41.966Z,16.70
2017-12-29T15:16:11.910Z,15.93
2017-12-29T15:18:41.611Z,15.77
2017-12-29T15:21:11.833Z,14.13
2017-12-29T15:23:42.989Z,14.57
2017-12-29T15:26:12.904Z,15.37
2017-12-29T15:28:42.413Z,14.17
2017-12-29T15:31:12.322Z,15.00
2017-12-29T15:33:44.333Z,15.40
2017-12-29T15:36:14.235Z,16.20
2017-12-29T15:38:43.996Z,15.20
2017-12-29T15:41:13.872Z,15.00
2017-12-29T15:43:44.159Z,14.63
2017-12-29T15:46:14.304Z,14.00
2017-12-29T15:48:44.356Z,16.03
2017-12-29T15:51:16.171Z,14.70
2017-12-29T15:53:45.856Z,14.00
2017-12-29T15:56:15.657Z,14.50
2017-12-29T15:58:45.352Z,15.27
2017-12-29T16:01:15.216Z,13.63
2017-12-29T16:03:44.855Z,15.20
2017-12-29T16:06:14.852Z,14.60
2017-12-29T16:08:44.592Z,13.70
2017-12-29T16:11:14.124Z,14.17
2017-12-29T16:13:43.847Z,15.33
2017-12-29T16:16:13.486Z,13.70
2017-12-29T16:18:43.387Z,14.73
2017-12-29T16:21:13.061Z,15.63
2017-12-29T16:23:42.817Z,16.20
2017-12-29T16:26:12.529Z,15.00
2017-12-29T16:28:42.133Z,15.47
2017-12-29T16:31:12.152Z,14.87
2017-12-29T16:33:41.715Z,17.10
2017-12-29T16:36:11.287Z,17.27
2017-12-29T16:38:41.081Z,19.57
2017-12-29T16:41:10.584Z,20.70
2017-12-29T16:43:40.089Z,19.00
2017-12-29T16:46:10.402Z,20.17
2017-12-29T16:48:40.231Z,18.90
2017-12-29T16:51:09.733Z,18.97
2017-12-29T16:53:39.552Z,20.20
2017-12-29T16:56:09.335Z,19.67
2017-12-29T16:58:39.278Z,18.17
2017-12-29T17:01:09.333Z,17.60
2017-12-29T17:03:39.034Z,18.70
2017-12-29T17:06:08.804Z,17.87
2017-12-29T17:08:38.614Z,18.10
2017-12-29T17:11:09.080Z,16.97
2017-12-29T17:13:39.655Z,17.87
2017-12-29T17:16:09.522Z,18.77
2017-12-29T17:18:39.912Z,18.00
2017-12-29T17:21:09.687Z,20.23
2017-12-29T17:23:40.159Z,16.47
2017-12-29T17:26:10.270Z,16.20
2017-12-29T17:28:40.106Z,17.93
2017-12-29T17:31:09.884Z,16.30
2017-12-29T17:33:39.806Z,17.10
2017-12-29T17:36:09.662Z,17.10
2017-12-29T17:38:40.567Z,17.57
2017-12-29T17:41:10.264Z,19.27
2017-12-29T17:43:40.497Z,17.70
2017-12-29T17:46:11.055Z,18.33
2017-12-29T17:48:40.882Z,17.70
2017-12-29T17:51:10.465Z,18.87
2017-12-29T17:53:40.101Z,16.10
2017-12-29T17:56:10.428Z,17.73
2017-12-29T17:58:40.155Z,17.93
2017-12-29T18:01:09.985Z,19.90
2017-12-29T18:03:40.118Z,17.77
2017-12-29T18:06:10.097Z,17.53
2017-12-29T18:08:41.032Z,17.70
2017-12-29T18:11:10.762Z,19.20
2017-12-29T18:13:40.671Z,17.33
2017-12-29T18:16:10.964Z,17.73
2017-12-29T18:18:40.801Z,18.03
2017-12-29T18:21:10.713Z,18.13
2017-12-29T18:23:40.503Z,18.73
2017-12-29T18:26:10.332Z,18.47
2017-12-29T18:28:40.011Z,18.97
2017-12-29T18:31:10.208Z,18.23
2017-12-29T18:33:40.729Z,18.73
2017-12-29T18:36:10.297Z,17.10
2017-12-29T18:38:40.255Z,17.23
2017-12-29T18:41:11.788Z,19.67
2017-12-29T18:43:41.696Z,16.63
2017-12-29T18:46:11.758Z,18.40
2017-12-29T18:48:42.506Z,17.73
2017-12-29T18:51:12.259Z,16.97
2017-12-29T18:53:42.962Z,17.57
2017-12-29T18:56:12.488Z,17.47
2017-12-29T18:58:42.060Z,16.03
2017-12-29T19:01:11.774Z,16.50
2017-12-29T19:03:41.426Z,16.60
2017-12-29T19:06:11.265Z,16.70
2017-12-29T19:08:40.972Z,15.80
2017-12-29T19:11:10.551Z,15.03
2017-12-29T19:13:40.512Z,14.63
2017-12-29T19:16:11.702Z,14.77
2017-12-29T19:18:41.724Z,14.03
2017-12-29T19:21:12.344Z,14.33
2017-12-29T19:23:42.245Z,15.70
2017-12-29T19:26:12.832Z,13.97
2017-12-29T19:28:43.302Z,15.33
2017-12-29T19:31:13.254Z,15.43
2017-12-29T19:33:43.290Z,12.80
2017-12-29T19:36:13.179Z,13.00
2017-12-29T19:38:43.185Z,12.73
2017-12-29T19:41:12.775Z,13.13
2017-12-29T19:43:42.615Z,12.90
2017-12-29T19:46:12.220Z,13.60
2017-12-29T19:48:42.095Z,11.37
2017-12-29T19:51:12.294Z,12.83
2017-12-29T19:53:42.115Z,13.77
2017-12-29T19:56:12.809Z,13.03
2017-12-29T19:58:42.357Z,12.10
2017-12-29T20:01:12.054Z,12.70
2017-12-29T20:03:41.813Z,10.63
2017-12-29T20:06:11.765Z,11.20
2017-12-29T20:08:41.561Z,11.07
2017-12-29T20:11:11.348Z,10.10
2017-12-29T20:13:41.004Z,12.20
2017-12-29T20:16:10.797Z,12.10
2017-12-29T20:18:40.528Z,10.60
2017-12-29T20:21:10.405Z,10.27
2017-12-29T20:23:40.391Z,10.17
2017-12-29T20:26:09.959Z,9.90
2017-12-29T20:28:39.726Z,10.63
2017-12-29T20:31:09.717Z,10.40
2017-12-29T20:33:39.651Z,9.43
2017-12-29T20:36:09.434Z,11.47
2017-12-29T20:38:39.475Z,9.60
2017-12-29T20:41:09.058Z,9.80
2017-12-29T20:43:39.880Z,9.53
2017-12-29T20:46:10.678Z,10.03
2017-12-29T20:48:40.927Z,9.50
2017-12-29T20:51:10.903Z,9.73
2017-12-29T20:53:40.828Z,9.87
2017-12-29T20:56:12.421Z,8.57
2017-12-29T20:58:41.959Z,9.40
2017-12-29T21:01:11.658Z,7.80
2017-12-29T21:03:41.398Z,8.67
2017-12-29T21:06:11.172Z,8.63
2017-12-29T21:08:40.696Z,8.80
2017-12-29T21:11:10.454Z,7.90
2017-12-29T21:13:40.070Z,7.20
2017-12-29T21:16:10.583Z,8.10
2017-12-29T21:18:40.307Z,8.30
2017-12-29T21:21:10.488Z,8.30
2017-12-29T21:23:40.104Z,7.67
2017-12-29T21:26:09.917Z,7.40
2017-12-29T21:28:39.926Z,7.13
2017-12-29T21:31:09.906Z,7.10
2017-12-29T21:33:39.715Z,6.93
2017-12-29T21:36:09.551Z,6.60
2017-12-29T21:38:39.497Z,7.10
2017-12-29T21:41:09.379Z,6.43
2017-12-29T21:43:38.942Z,6.50
2017-12-29T21:46:08.727Z,8.13
2017-12-29T21:48:38.688Z,6.10
2017-12-29T21:51:08.402Z,5.23
2017-12-29T21:53:38.084Z,6.40
2017-12-29T21:56:07.807Z,7.47
2017-12-29T21:58:38.106Z,6.13
2017-12-29T22:01:07.689Z,6.33
2017-12-29T22:03:37.596Z,6.97
2017-12-29T22:06:07.180Z,6.77
2017-12-29T22:08:36.984Z,6.13
2017-12-29T22:11:06.695Z,6.30
2017-12-29T22:13:36.388Z,6.70
2017-12-29T22:16:06.722Z,6.60
2017-12-29T22:18:36.687Z,6.97
2017-12-29T22:21:06.348Z,6.40
2017-12-29T22:23:36.232Z,5.03
2017-12-29T22:26:06.257Z,5.40
2017-12-29T22:28:35.918Z,6.20
2017-12-29T22:31:05.587Z,6.53
2017-12-29T22:33:36.989Z,6.40
2017-12-29T22:36:07.064Z,6.47
2017-12-29T22:38:36.788Z,6.90
2017-12-29T22:41:06.521Z,5.90
2017-12-29T22:43:36.213Z,6.10
2017-12-29T22:46:05.821Z,6.63
2017-12-29T22:48:35.303Z,6.33
2017-12-29T22:51:04.988Z,7.03
2017-12-29T22:53:35.219Z,7.70
2017-12-29T22:56:05.658Z,6.97
2017-12-29T22:58:35.156Z,6.53
2017-12-29T23:01:05.080Z,6.60
2017-12-29T23:03:34.592Z,7.17
2017-12-29T23:06:06.438Z,7.40
2017-12-29T23:08:36.127Z,7.40
2017-12-29T23:11:05.677Z,5.63
2017-12-29T23:13:35.607Z,7.60
2017-12-29T23:16:05.072Z,8.17
2017-12-29T23:18:35.097Z,6.90
2017-12-29T23:21:04.726Z,6.90
2017-12-29T23:23:35.022Z,6.80
2017-12-29T23:26:04.797Z,7.67
2017-12-29T23:28:34.910Z,7.90
2017-12-29T23:31:04.852Z,8.10
2017-12-29T23:33:34.346Z,7.10
2017-12-29T23:36:04.349Z,8.67
2017-12-29T23:38:33.839Z,7.80
2017-12-29T23:41:03.443Z,6.63
2017-12-29T23:43:32.946Z,7.60
2017-12-29T23:46:02.659Z,8.70
2017-12-29T23:48:32.167Z,7.77
2017-12-29T23:51:01.842Z,7.90
2017-12-29T23:53:31.507Z,7.70
2017-12-29T23:56:01.125Z,8.30
2017-12-29T23:58:30.818Z,7.60
